Harrison Valley, Pennsylvania
Current Conditions -  °F | °C
As of 11:55 AM on Wednesday 22 Oct 2014 (Local Time) from KN38 Reporting Station
Overcast Overcast  
Wind Chill: 37°   Ceiling: 500
Heat Index: 45°   Visibility: 7mi
Dew Point: 43°   Wind: 18mph
Humidity: 93%   Direction: 360°N
Pressure: 30.1"   Gusts: 25mph
Location:  41.94°N, 77.65°W
Report Text: KN38 221555Z AUTO 36016G22KT 7SM OVC005 07/06 A3010 RMK AO2
Loading
Personal Weather Stations






























Interactive Weather Map
Tropical Storm Tracking
New forecast layout! Learn more

10-Day Weather Forecast

Advertisements
Track Severe Weather on mobile